sensor_id;sensor_type;location;lat;lon;timestamp;pressure;altitude;pressure_sealevel;temperature;humidity
10464;BME280;5279;42.048;24.638;2023-10-31T00:00:05;97625.63;;;14.97;95.50
10464;BME280;5279;42.048;24.638;2023-10-31T00:02:34;97633.25;;;15.08;94.59
10464;BME280;5279;42.048;24.638;2023-10-31T00:05:01;97631.59;;;15.07;94.91
10464;BME280;5279;42.048;24.638;2023-10-31T00:07:28;97631.59;;;14.99;94.40
10464;BME280;5279;42.048;24.638;2023-10-31T00:09:56;97621.91;;;15.06;93.50
10464;BME280;5279;42.048;24.638;2023-10-31T00:12:22;97624.94;;;15.03;94.33
10464;BME280;5279;42.048;24.638;2023-10-31T00:14:50;97627.91;;;15.08;93.34
10464;BME280;5279;42.048;24.638;2023-10-31T00:17:17;97622.91;;;15.05;92.56
10464;BME280;5279;42.048;24.638;2023-10-31T00:19:44;97619.63;;;14.87;95.21
10464;BME280;5279;42.048;24.638;2023-10-31T00:22:11;97625.38;;;14.68;97.53
10464;BME280;5279;42.048;24.638;2023-10-31T00:24:38;97613.53;;;14.54;100.00
10464;BME280;5279;42.048;24.638;2023-10-31T00:27:07;97614.41;;;14.47;100.00
10464;BME280;5279;42.048;24.638;2023-10-31T00:29:35;97615.72;;;14.43;100.00
10464;BME280;5279;42.048;24.638;2023-10-31T00:32:04;97613.09;;;14.35;100.00
10464;BME280;5279;42.048;24.638;2023-10-31T00:34:31;97606.53;;;14.29;100.00
10464;BME280;5279;42.048;24.638;2023-10-31T00:36:58;97602.72;;;14.32;100.00
10464;BME280;5279;42.048;24.638;2023-10-31T00:39:24;97609.06;;;14.06;100.00
10464;BME280;5279;42.048;24.638;2023-10-31T00:41:51;97601.38;;;13.95;100.00
10464;BME280;5279;42.048;24.638;2023-10-31T00:44:18;97591.03;;;13.92;100.00
10464;BME280;5279;42.048;24.638;2023-10-31T00:46:45;97593.72;;;14.00;100.00
10464;BME280;5279;42.048;24.638;2023-10-31T00:49:13;97609.34;;;13.87;100.00
10464;BME280;5279;42.048;24.638;2023-10-31T00:51:40;97604.34;;;13.84;100.00
10464;BME280;5279;42.048;24.638;2023-10-31T00:54:07;97598.00;;;13.77;100.00
10464;BME280;5279;42.048;24.638;2023-10-31T00:56:34;97599.66;;;13.62;100.00
10464;BME280;5279;42.048;24.638;2023-10-31T00:59:01;97596.66;;;13.65;100.00
10464;BME280;5279;42.048;24.638;2023-10-31T01:01:28;97588.84;;;13.72;100.00
10464;BME280;5279;42.048;24.638;2023-10-31T01:03:54;97592.69;;;13.69;96.65
10464;BME280;5279;42.048;24.638;2023-10-31T01:06:23;97589.38;;;13.75;99.00
10464;BME280;5279;42.048;24.638;2023-10-31T01:08:50;97587.72;;;13.90;99.57
10464;BME280;5279;42.048;24.638;2023-10-31T01:11:16;97585.38;;;13.95;99.76
10464;BME280;5279;42.048;24.638;2023-10-31T01:13:43;97582.56;;;13.97;99.50
10464;BME280;5279;42.048;24.638;2023-10-31T01:16:10;97590.72;;;13.79;100.00
10464;BME280;5279;42.048;24.638;2023-10-31T01:18:37;97592.34;;;13.80;100.00
10464;BME280;5279;42.048;24.638;2023-10-31T01:21:04;97571.72;;;13.74;99.89
10464;BME280;5279;42.048;24.638;2023-10-31T01:23:32;97582.22;;;13.84;97.05
10464;BME280;5279;42.048;24.638;2023-10-31T01:25:59;97584.72;;;13.85;97.32
10464;BME280;5279;42.048;24.638;2023-10-31T01:28:26;97593.84;;;13.75;99.39
10464;BME280;5279;42.048;24.638;2023-10-31T01:30:53;97584.38;;;13.72;98.74
10464;BME280;5279;42.048;24.638;2023-10-31T01:33:19;97574.03;;;13.77;96.19
10464;BME280;5279;42.048;24.638;2023-10-31T01:35:46;97578.56;;;13.85;97.32
10464;BME280;5279;42.048;24.638;2023-10-31T01:38:13;97566.75;;;13.79;96.88
10464;BME280;5279;42.048;24.638;2023-10-31T01:40:41;97575.38;;;13.89;96.87
10464;BME280;5279;42.048;24.638;2023-10-31T01:43:08;97572.06;;;13.79;95.95
10464;BME280;5279;42.048;24.638;2023-10-31T01:45:35;97566.25;;;13.67;100.00
10464;BME280;5279;42.048;24.638;2023-10-31T01:48:02;97560.72;;;13.77;99.43
10464;BME280;5279;42.048;24.638;2023-10-31T01:50:29;97562.72;;;13.83;97.60
10464;BME280;5279;42.048;24.638;2023-10-31T01:52:56;97569.56;;;13.78;98.21
10464;BME280;5279;42.048;24.638;2023-10-31T01:55:23;97567.38;;;13.65;100.00
10464;BME280;5279;42.048;24.638;2023-10-31T01:57:54;97560.06;;;13.67;100.00
10464;BME280;5279;42.048;24.638;2023-10-31T02:00:21;97557.56;;;13.65;100.00
10464;BME280;5279;42.048;24.638;2023-10-31T02:02:48;97560.06;;;13.67;95.00
10464;BME280;5279;42.048;24.638;2023-10-31T02:05:18;97552.09;;;13.75;93.56
10464;BME280;5279;42.048;24.638;2023-10-31T02:07:45;97551.94;;;13.85;91.58
10464;BME280;5279;42.048;24.638;2023-10-31T02:10:12;97554.75;;;13.91;88.42
10464;BME280;5279;42.048;24.638;2023-10-31T02:12:39;97543.78;;;13.94;89.98
10464;BME280;5279;42.048;24.638;2023-10-31T02:15:08;97540.44;;;13.84;92.53
10464;BME280;5279;42.048;24.638;2023-10-31T02:17:35;97555.75;;;13.90;92.60
10464;BME280;5279;42.048;24.638;2023-10-31T02:20:02;97549.41;;;13.83;91.92
10464;BME280;5279;42.048;24.638;2023-10-31T02:22:31;97551.75;;;13.78;92.25
10464;BME280;5279;42.048;24.638;2023-10-31T02:24:58;97550.41;;;13.74;91.44
10464;BME280;5279;42.048;24.638;2023-10-31T02:27:24;97554.41;;;13.78;88.79
10464;BME280;5279;42.048;24.638;2023-10-31T02:29:51;97552.59;;;13.79;87.67
10464;BME280;5279;42.048;24.638;2023-10-31T02:32:18;97560.41;;;13.80;86.99
10464;BME280;5279;42.048;24.638;2023-10-31T02:34:45;97557.41;;;13.83;86.27
10464;BME280;5279;42.048;24.638;2023-10-31T02:37:12;97556.09;;;13.79;88.06
10464;BME280;5279;42.048;24.638;2023-10-31T02:39:41;97561.72;;;13.60;89.17
10464;BME280;5279;42.048;24.638;2023-10-31T02:42:07;97573.22;;;13.52;89.83
10464;BME280;5279;42.048;24.638;2023-10-31T02:44:34;97571.03;;;13.56;88.95
10464;BME280;5279;42.048;24.638;2023-10-31T02:47:01;97558.03;;;13.53;87.89
10464;BME280;5279;42.048;24.638;2023-10-31T02:49:28;97570.22;;;13.63;86.88
10464;BME280;5279;42.048;24.638;2023-10-31T02:51:55;97571.22;;;13.62;87.10
10464;BME280;5279;42.048;24.638;2023-10-31T02:54:22;97568.56;;;13.71;86.31
10464;BME280;5279;42.048;24.638;2023-10-31T02:56:50;97564.75;;;13.73;85.91
10464;BME280;5279;42.048;24.638;2023-10-31T02:59:17;97568.56;;;13.71;85.25
10464;BME280;5279;42.048;24.638;2023-10-31T03:01:44;97562.38;;;13.54;87.01
10464;BME280;5279;42.048;24.638;2023-10-31T03:04:11;97567.06;;;13.60;84.85
10464;BME280;5279;42.048;24.638;2023-10-31T03:06:38;97569.84;;;13.50;85.58
10464;BME280;5279;42.048;24.638;2023-10-31T03:09:06;97555.56;;;13.51;85.02
10464;BME280;5279;42.048;24.638;2023-10-31T03:11:33;97564.34;;;13.44;85.38
10464;BME280;5279;42.048;24.638;2023-10-31T03:14:01;97561.69;;;13.36;87.14
10464;BME280;5279;42.048;24.638;2023-10-31T03:16:28;97556.34;;;13.28;87.08
10464;BME280;5279;42.048;24.638;2023-10-31T03:18:55;97556.69;;;13.33;85.08
10464;BME280;5279;42.048;24.638;2023-10-31T03:21:22;97559.69;;;13.38;85.31
10464;BME280;5279;42.048;24.638;2023-10-31T03:23:50;97568.34;;;13.40;84.37
10464;BME280;5279;42.048;24.638;2023-10-31T03:26:19;97562.31;;;13.30;83.20
10464;BME280;5279;42.048;24.638;2023-10-31T03:28:46;97554.16;;;13.15;83.74
10464;BME280;5279;42.048;24.638;2023-10-31T03:31:14;97558.31;;;13.18;85.07
10464;BME280;5279;42.048;24.638;2023-10-31T03:33:41;97561.47;;;13.13;84.47
10464;BME280;5279;42.048;24.638;2023-10-31T03:36:09;97563.31;;;13.21;84.21
10464;BME280;5279;42.048;24.638;2023-10-31T03:38:36;97551.81;;;13.20;83.85
10464;BME280;5279;42.048;24.638;2023-10-31T03:41:03;97569.94;;;13.17;83.54
10464;BME280;5279;42.048;24.638;2023-10-31T03:43:30;97568.94;;;13.18;84.58
10464;BME280;5279;42.048;24.638;2023-10-31T03:45:57;97555.63;;;13.09;83.40
10464;BME280;5279;42.048;24.638;2023-10-31T03:48:25;97567.59;;;13.13;82.17
10464;BME280;5279;42.048;24.638;2023-10-31T03:50:52;97557.06;;;13.04;84.62
10464;BME280;5279;42.048;24.638;2023-10-31T03:53:19;97565.53;;;13.07;84.60
10464;BME280;5279;42.048;24.638;2023-10-31T03:55:46;97570.84;;;12.99;83.46
10464;BME280;5279;42.048;24.638;2023-10-31T03:58:13;97565.19;;;13.02;83.98
10464;BME280;5279;42.048;24.638;2023-10-31T04:00:39;97566.03;;;13.03;83.86
10464;BME280;5279;42.048;24.638;2023-10-31T04:03:07;97571.50;;;13.01;83.89
10464;BME280;5279;42.048;24.638;2023-10-31T04:05:35;97565.19;;;12.94;83.38
10464;BME280;5279;42.048;24.638;2023-10-31T04:08:03;97562.97;;;12.82;84.42
10464;BME280;5279;42.048;24.638;2023-10-31T04:10:30;97561.09;;;12.74;85.01
10464;BME280;5279;42.048;24.638;2023-10-31T04:12:57;97558.84;;;12.61;86.75
10464;BME280;5279;42.048;24.638;2023-10-31T04:15:24;97562.34;;;12.62;87.21
10464;BME280;5279;42.048;24.638;2023-10-31T04:17:52;97555.38;;;12.61;86.41
10464;BME280;5279;42.048;24.638;2023-10-31T04:20:19;97550.88;;;12.61;85.77
10464;BME280;5279;42.048;24.638;2023-10-31T04:22:47;97568.63;;;12.53;86.80
10464;BME280;5279;42.048;24.638;2023-10-31T04:25:14;97559.13;;;12.50;86.51
10464;BME280;5279;42.048;24.638;2023-10-31T04:27:41;97551.66;;;12.46;87.19
10464;BME280;5279;42.048;24.638;2023-10-31T04:30:09;97554.09;;;12.39;86.92
10464;BME280;5279;42.048;24.638;2023-10-31T04:32:36;97547.91;;;12.31;87.62
10464;BME280;5279;42.048;24.638;2023-10-31T04:35:03;97552.78;;;12.18;88.85
10464;BME280;5279;42.048;24.638;2023-10-31T04:37:30;97542.38;;;12.24;87.28
10464;BME280;5279;42.048;24.638;2023-10-31T04:39:59;97546.22;;;12.30;86.84
10464;BME280;5279;42.048;24.638;2023-10-31T04:42:26;97557.38;;;12.33;87.32
10464;BME280;5279;42.048;24.638;2023-10-31T04:44:52;97547.06;;;12.30;88.15
10464;BME280;5279;42.048;24.638;2023-10-31T04:47:19;97546.53;;;12.27;87.32
10464;BME280;5279;42.048;24.638;2023-10-31T04:49:46;97543.22;;;12.25;86.82
10464;BME280;5279;42.048;24.638;2023-10-31T04:52:13;97541.91;;;12.29;86.96
10464;BME280;5279;42.048;24.638;2023-10-31T04:54:40;97535.59;;;12.30;86.11
10464;BME280;5279;42.048;24.638;2023-10-31T04:57:08;97544.75;;;12.35;85.89
10464;BME280;5279;42.048;24.638;2023-10-31T04:59:36;97546.06;;;12.31;87.14
10464;BME280;5279;42.048;24.638;2023-10-31T05:02:03;97532.47;;;12.34;86.33
10464;BME280;5279;42.048;24.638;2023-10-31T05:04:30;97534.66;;;12.39;86.57
10464;BME280;5279;42.048;24.638;2023-10-31T05:06:58;97538.31;;;12.38;85.91
10464;BME280;5279;42.048;24.638;2023-10-31T05:09:26;97535.81;;;12.36;86.64
10464;BME280;5279;42.048;24.638;2023-10-31T05:11:53;97529.66;;;12.36;85.90
10464;BME280;5279;42.048;24.638;2023-10-31T05:14:21;97532.66;;;12.41;85.82
10464;BME280;5279;42.048;24.638;2023-10-31T05:20:11;97529.91;;;12.50;84.46
10464;BME280;5279;42.048;24.638;2023-10-31T05:22:37;97532.44;;;12.60;83.95
10464;BME280;5279;42.048;24.638;2023-10-31T05:25:05;97538.50;;;12.78;82.59
10464;BME280;5279;42.048;24.638;2023-10-31T05:27:32;97543.94;;;13.02;80.92
10464;BME280;5279;42.048;24.638;2023-10-31T05:30:00;97544.34;;;13.16;80.02
10464;BME280;5279;42.048;24.638;2023-10-31T05:32:27;97542.00;;;13.21;77.69
10464;BME280;5279;42.048;24.638;2023-10-31T05:34:54;97552.72;;;13.37;76.87
10464;BME280;5279;42.048;24.638;2023-10-31T05:37:21;97560.03;;;13.51;76.84
10464;BME280;5279;42.048;24.638;2023-10-31T05:39:48;97562.22;;;13.72;75.79
10464;BME280;5279;42.048;24.638;2023-10-31T05:42:15;97564.41;;;13.92;72.38
10464;BME280;5279;42.048;24.638;2023-10-31T05:44:42;97570.06;;;14.13;71.74
10464;BME280;5279;42.048;24.638;2023-10-31T05:47:11;97576.06;;;14.32;72.28
10464;BME280;5279;42.048;24.638;2023-10-31T05:49:38;97576.06;;;14.48;70.00
10464;BME280;5279;42.048;24.638;2023-10-31T05:52:05;97574.06;;;14.50;68.66
10464;BME280;5279;42.048;24.638;2023-10-31T05:54:32;97566.03;;;14.58;67.88
10464;BME280;5279;42.048;24.638;2023-10-31T05:56:58;97580.00;;;14.76;67.63
10464;BME280;5279;42.048;24.638;2023-10-31T05:59:25;97586.94;;;14.93;66.92
10464;BME280;5279;42.048;24.638;2023-10-31T06:01:52;97579.72;;;15.02;66.20
10464;BME280;5279;42.048;24.638;2023-10-31T06:04:21;97590.88;;;15.05;66.50
10464;BME280;5279;42.048;24.638;2023-10-31T06:06:49;97585.78;;;15.35;65.30
10464;BME280;5279;42.048;24.638;2023-10-31T06:09:16;97584.22;;;15.48;66.05
10464;BME280;5279;42.048;24.638;2023-10-31T06:11:43;97592.75;;;15.74;64.15
10464;BME280;5279;42.048;24.638;2023-10-31T06:14:10;97580.03;;;15.99;62.05
10464;BME280;5279;42.048;24.638;2023-10-31T06:16:40;97579.19;;;16.21;59.78
10464;BME280;5279;42.048;24.638;2023-10-31T06:19:08;97576.06;;;16.32;59.22
10464;BME280;5279;42.048;24.638;2023-10-31T06:21:36;97578.22;;;16.52;59.39
10464;BME280;5279;42.048;24.638;2023-10-31T06:24:03;97579.59;;;16.70;56.68
10464;BME280;5279;42.048;24.638;2023-10-31T06:26:30;97577.81;;;16.63;57.45
10464;BME280;5279;42.048;24.638;2023-10-31T06:28:57;97579.84;;;16.61;59.07
10464;BME280;5279;42.048;24.638;2023-10-31T06:31:24;97580.22;;;16.72;59.32
10464;BME280;5279;42.048;24.638;2023-10-31T06:33:51;97585.78;;;16.71;59.96
10464;BME280;5279;42.048;24.638;2023-10-31T06:36:18;97590.22;;;16.93;59.77
10464;BME280;5279;42.048;24.638;2023-10-31T06:38:46;97593.13;;;17.27;59.46
10464;BME280;5279;42.048;24.638;2023-10-31T06:41:13;97587.81;;;17.63;59.06
10464;BME280;5279;42.048;24.638;2023-10-31T06:43:40;97596.34;;;17.88;59.03
10464;BME280;5279;42.048;24.638;2023-10-31T06:46:07;97586.16;;;17.98;59.79
10464;BME280;5279;42.048;24.638;2023-10-31T06:48:34;97589.19;;;18.16;60.60
10464;BME280;5279;42.048;24.638;2023-10-31T06:51:00;97584.41;;;18.33;58.67
10464;BME280;5279;42.048;24.638;2023-10-31T06:53:27;97575.81;;;18.44;58.66
10464;BME280;5279;42.048;24.638;2023-10-31T06:55:55;97574.09;;;18.36;60.36
10464;BME280;5279;42.048;24.638;2023-10-31T06:58:22;97571.41;;;18.58;60.60
10464;BME280;5279;42.048;24.638;2023-10-31T07:00:49;97575.03;;;18.71;60.63
10464;BME280;5279;42.048;24.638;2023-10-31T07:03:17;97581.97;;;18.59;61.36
10464;BME280;5279;42.048;24.638;2023-10-31T07:05:43;97576.19;;;18.90;60.69
10464;BME280;5279;42.048;24.638;2023-10-31T07:08:10;97564.47;;;19.04;60.10
10464;BME280;5279;42.048;24.638;2023-10-31T07:10:37;97561.91;;;19.30;59.75
10464;BME280;5279;42.048;24.638;2023-10-31T07:13:06;97561.50;;;19.33;60.01
10464;BME280;5279;42.048;24.638;2023-10-31T07:15:33;97563.66;;;19.44;59.81
10464;BME280;5279;42.048;24.638;2023-10-31T07:18:04;97561.28;;;19.76;59.04
10464;BME280;5279;42.048;24.638;2023-10-31T07:20:32;97564.81;;;19.83;57.35
10464;BME280;5279;42.048;24.638;2023-10-31T07:22:59;97563.81;;;19.97;57.40
10464;BME280;5279;42.048;24.638;2023-10-31T07:25:27;97557.66;;;20.29;56.52
10464;BME280;5279;42.048;24.638;2023-10-31T07:27:54;97565.09;;;20.40;55.28
10464;BME280;5279;42.048;24.638;2023-10-31T07:30:22;97560.94;;;20.70;54.37
10464;BME280;5279;42.048;24.638;2023-10-31T07:32:49;97562.38;;;20.86;54.30
10464;BME280;5279;42.048;24.638;2023-10-31T07:35:16;97563.38;;;20.92;52.71
10464;BME280;5279;42.048;24.638;2023-10-31T07:37:45;97553.78;;;21.22;51.62
10464;BME280;5279;42.048;24.638;2023-10-31T07:40:12;97544.44;;;21.31;52.68
10464;BME280;5279;42.048;24.638;2023-10-31T07:42:39;97544.91;;;21.66;48.33
10464;BME280;5279;42.048;24.638;2023-10-31T07:45:06;97533.56;;;21.89;49.61
10464;BME280;5279;42.048;24.638;2023-10-31T07:47:35;97532.97;;;22.18;48.19
10464;BME280;5279;42.048;24.638;2023-10-31T07:50:02;97536.97;;;22.40;47.40
10464;BME280;5279;42.048;24.638;2023-10-31T07:52:29;97529.88;;;22.39;47.62
10464;BME280;5279;42.048;24.638;2023-10-31T07:54:56;97528.13;;;22.51;46.64
10464;BME280;5279;42.048;24.638;2023-10-31T07:57:23;97539.81;;;22.45;48.38
10464;BME280;5279;42.048;24.638;2023-10-31T07:59:50;97528.06;;;22.58;48.12
10464;BME280;5279;42.048;24.638;2023-10-31T08:02:17;97521.97;;;22.62;47.58
10464;BME280;5279;42.048;24.638;2023-10-31T08:04:45;97521.97;;;22.62;48.47
10464;BME280;5279;42.048;24.638;2023-10-31T08:07:12;97516.63;;;22.80;48.01
10464;BME280;5279;42.048;24.638;2023-10-31T08:09:38;97507.63;;;22.86;47.36
10464;BME280;5279;42.048;24.638;2023-10-31T08:12:06;97512.81;;;22.88;48.15
10464;BME280;5279;42.048;24.638;2023-10-31T08:14:33;97496.63;;;22.88;48.07
10464;BME280;5279;42.048;24.638;2023-10-31T08:16:59;97493.38;;;22.79;47.90
10464;BME280;5279;42.048;24.638;2023-10-31T08:19:26;97483.94;;;23.07;47.86
10464;BME280;5279;42.048;24.638;2023-10-31T08:21:54;97490.88;;;23.32;46.88
10464;BME280;5279;42.048;24.638;2023-10-31T08:24:21;97481.47;;;23.53;46.37
10464;BME280;5279;42.048;24.638;2023-10-31T08:26:48;97485.44;;;23.80;46.25
10464;BME280;5279;42.048;24.638;2023-10-31T08:29:15;97485.16;;;24.00;45.64
10464;BME280;5279;42.048;24.638;2023-10-31T08:31:42;97478.63;;;24.31;45.08
10464;BME280;5279;42.048;24.638;2023-10-31T08:34:09;97484.41;;;24.69;43.52
10464;BME280;5279;42.048;24.638;2023-10-31T08:36:36;97480.44;;;25.23;41.54
10464;BME280;5279;42.048;24.638;2023-10-31T08:39:05;97483.34;;;25.33;42.12
10464;BME280;5279;42.048;24.638;2023-10-31T08:41:33;97489.25;;;25.70;40.94
10464;BME280;5279;42.048;24.638;2023-10-31T08:43:59;97494.03;;;26.08;40.35
10464;BME280;5279;42.048;24.638;2023-10-31T08:46:29;97487.28;;;26.77;38.95
10464;BME280;5279;42.048;24.638;2023-10-31T08:48:56;97495.16;;;27.82;37.05
10464;BME280;5279;42.048;24.638;2023-10-31T08:51:22;97492.00;;;28.54;35.53
10464;BME280;5279;42.048;24.638;2023-10-31T08:53:49;97490.97;;;29.54;34.16
10464;BME280;5279;42.048;24.638;2023-10-31T08:56:18;97486.19;;;30.31;32.75
10464;BME280;5279;42.048;24.638;2023-10-31T08:58:45;97486.69;;;31.14;30.89
10464;BME280;5279;42.048;24.638;2023-10-31T09:01:11;97477.69;;;31.68;30.19
10464;BME280;5279;42.048;24.638;2023-10-31T09:03:38;97474.78;;;32.03;29.42
10464;BME280;5279;42.048;24.638;2023-10-31T09:06:05;97461.09;;;32.66;28.75
10464;BME280;5279;42.048;24.638;2023-10-31T09:08:33;97454.25;;;32.92;28.00
10464;BME280;5279;42.048;24.638;2023-10-31T09:10:59;97448.91;;;33.48;26.90
10464;BME280;5279;42.048;24.638;2023-10-31T09:13:29;97445.25;;;33.95;26.40
10464;BME280;5279;42.048;24.638;2023-10-31T09:15:57;97435.81;;;33.21;26.45
10464;BME280;5279;42.048;24.638;2023-10-31T09:18:24;97414.22;;;33.76;26.23
10464;BME280;5279;42.048;24.638;2023-10-31T09:20:51;97411.13;;;34.15;25.70
10464;BME280;5279;42.048;24.638;2023-10-31T09:23:18;97396.88;;;34.13;26.15
10464;BME280;5279;42.048;24.638;2023-10-31T09:25:45;97398.25;;;34.61;25.42
10464;BME280;5279;42.048;24.638;2023-10-31T09:28:12;97407.22;;;34.94;25.55
10464;BME280;5279;42.048;24.638;2023-10-31T09:30:41;97405.81;;;35.24;24.84
10464;BME280;5279;42.048;24.638;2023-10-31T09:33:07;97400.38;;;35.95;24.34
10464;BME280;5279;42.048;24.638;2023-10-31T09:35:34;97392.72;;;36.14;23.71
10464;BME280;5279;42.048;24.638;2023-10-31T09:38:01;97391.94;;;35.78;23.52
10464;BME280;5279;42.048;24.638;2023-10-31T09:40:29;97377.13;;;36.32;23.19
10464;BME280;5279;42.048;24.638;2023-10-31T09:42:56;97378.09;;;36.98;22.69
10464;BME280;5279;42.048;24.638;2023-10-31T09:45:22;97384.00;;;37.05;22.61
10464;BME280;5279;42.048;24.638;2023-10-31T09:47:52;97387.00;;;36.95;22.79
10464;BME280;5279;42.048;24.638;2023-10-31T09:50:19;97375.19;;;37.03;22.58
10464;BME280;5279;42.048;24.638;2023-10-31T09:52:46;97366.81;;;37.42;21.66
10464;BME280;5279;42.048;24.638;2023-10-31T09:55:13;97364.59;;;37.61;21.57
10464;BME280;5279;42.048;24.638;2023-10-31T09:57:40;97362.06;;;37.08;21.64
10464;BME280;5279;42.048;24.638;2023-10-31T10:00:08;97345.69;;;37.29;21.47
10464;BME280;5279;42.048;24.638;2023-10-31T10:02:35;97353.84;;;38.20;21.11
10464;BME280;5279;42.048;24.638;2023-10-31T10:05:04;97351.28;;;38.15;20.98
10464;BME280;5279;42.048;24.638;2023-10-31T10:07:34;97350.47;;;38.06;21.05
10464;BME280;5279;42.048;24.638;2023-10-31T10:10:01;97338.66;;;38.43;20.60
10464;BME280;5279;42.048;24.638;2023-10-31T10:12:28;97327.22;;;38.53;20.28
10464;BME280;5279;42.048;24.638;2023-10-31T10:14:54;97321.50;;;38.58;20.01
10464;BME280;5279;42.048;24.638;2023-10-31T10:17:24;97317.53;;;39.35;19.67
10464;BME280;5279;42.048;24.638;2023-10-31T10:20:06;97314.03;;;38.97;19.74
10464;BME280;5279;42.048;24.638;2023-10-31T10:22:36;97315.84;;;39.13;19.70
10464;BME280;5279;42.048;24.638;2023-10-31T10:25:05;97314.03;;;39.17;20.39
10464;BME280;5279;42.048;24.638;2023-10-31T10:27:32;97308.28;;;39.02;20.03
10464;BME280;5279;42.048;24.638;2023-10-31T10:29:59;97305.88;;;39.21;19.81
10464;BME280;5279;42.048;24.638;2023-10-31T10:32:25;97293.38;;;38.48;20.14
10464;BME280;5279;42.048;24.638;2023-10-31T10:34:52;97295.88;;;39.49;19.37
10464;BME280;5279;42.048;24.638;2023-10-31T10:37:22;97283.13;;;39.90;18.91
10464;BME280;5279;42.048;24.638;2023-10-31T10:39:51;97293.94;;;40.48;18.71
10464;BME280;5279;42.048;24.638;2023-10-31T10:42:29;97293.53;;;39.39;19.29
10464;BME280;5279;42.048;24.638;2023-10-31T10:44:58;97289.97;;;40.13;18.95
10464;BME280;5279;42.048;24.638;2023-10-31T10:47:28;97286.59;;;40.64;18.79
10464;BME280;5279;42.048;24.638;2023-10-31T10:49:58;97282.41;;;40.58;18.60
10464;BME280;5279;42.048;24.638;2023-10-31T10:52:29;97277.75;;;40.62;18.37
10464;BME280;5279;42.048;24.638;2023-10-31T10:55:01;97268.56;;;40.25;18.57
10464;BME280;5279;42.048;24.638;2023-10-31T10:57:37;97265.75;;;40.95;18.40
10464;BME280;5279;42.048;24.638;2023-10-31T11:00:06;97276.16;;;41.10;17.81
10464;BME280;5279;42.048;24.638;2023-10-31T11:02:34;97249.06;;;40.70;18.22
10464;BME280;5279;42.048;24.638;2023-10-31T11:05:03;97258.53;;;41.06;18.43
10464;BME280;5279;42.048;24.638;2023-10-31T11:07:34;97254.16;;;40.68;18.47
10464;BME280;5279;42.048;24.638;2023-10-31T11:10:01;97244.63;;;41.18;18.11
10464;BME280;5279;42.048;24.638;2023-10-31T11:12:30;97241.59;;;41.90;17.48
10464;BME280;5279;42.048;24.638;2023-10-31T11:14:58;97243.22;;;41.64;17.54
10464;BME280;5279;42.048;24.638;2023-10-31T11:17:28;97238.34;;;41.21;17.79
10464;BME280;5279;42.048;24.638;2023-10-31T11:19:56;97236.84;;;41.91;17.85
10464;BME280;5279;42.048;24.638;2023-10-31T11:22:23;97230.59;;;41.54;17.40
10464;BME280;5279;42.048;24.638;2023-10-31T11:24:52;97231.59;;;41.89;17.02
10464;BME280;5279;42.048;24.638;2023-10-31T11:27:18;97225.00;;;42.41;17.06
10464;BME280;5279;42.048;24.638;2023-10-31T11:29:47;97218.72;;;42.44;16.57
10464;BME280;5279;42.048;24.638;2023-10-31T11:32:14;97224.16;;;42.68;16.71
10464;BME280;5279;42.048;24.638;2023-10-31T11:34:42;97216.19;;;43.02;16.51
10464;BME280;5279;42.048;24.638;2023-10-31T11:37:19;97216.06;;;43.52;16.38
10464;BME280;5279;42.048;24.638;2023-10-31T11:40:19;97217.91;;;43.44;16.23
10464;BME280;5279;42.048;24.638;2023-10-31T11:42:48;97198.94;;;44.37;15.63
10464;BME280;5279;42.048;24.638;2023-10-31T11:45:30;97185.09;;;44.22;15.72
10464;BME280;5279;42.048;24.638;2023-10-31T11:47:57;97183.97;;;43.62;16.24
10464;BME280;5279;42.048;24.638;2023-10-31T11:50:24;97185.75;;;44.61;15.40
10464;BME280;5279;42.048;24.638;2023-10-31T11:53:05;97188.78;;;44.26;15.70
10464;BME280;5279;42.048;24.638;2023-10-31T11:55:35;97175.16;;;44.24;15.86
10464;BME280;5279;42.048;24.638;2023-10-31T11:58:16;97169.22;;;43.84;16.19
10464;BME280;5279;42.048;24.638;2023-10-31T12:00:43;97168.16;;;43.69;16.20
10464;BME280;5279;42.048;24.638;2023-10-31T12:03:11;97161.25;;;43.82;16.00
10464;BME280;5279;42.048;24.638;2023-10-31T12:05:38;97161.38;;;43.89;16.08
10464;BME280;5279;42.048;24.638;2023-10-31T12:08:05;97160.13;;;44.10;15.91
10464;BME280;5279;42.048;24.638;2023-10-31T12:10:33;97153.72;;;42.71;16.65
10464;BME280;5279;42.048;24.638;2023-10-31T12:13:00;97150.56;;;42.22;17.05
10464;BME280;5279;42.048;24.638;2023-10-31T12:15:27;97153.31;;;42.38;17.16
10464;BME280;5279;42.048;24.638;2023-10-31T12:17:57;97130.03;;;41.68;17.76
10464;BME280;5279;42.048;24.638;2023-10-31T12:20:25;97127.78;;;41.73;17.54
10464;BME280;5279;42.048;24.638;2023-10-31T12:23:02;97124.81;;;41.66;17.92
10464;BME280;5279;42.048;24.638;2023-10-31T12:25:29;97118.50;;;40.34;18.91
10464;BME280;5279;42.048;24.638;2023-10-31T12:27:59;97116.09;;;39.51;19.56
10464;BME280;5279;42.048;24.638;2023-10-31T12:30:26;97109.59;;;38.23;20.46
10464;BME280;5279;42.048;24.638;2023-10-31T12:32:54;97106.00;;;37.38;21.25
10464;BME280;5279;42.048;24.638;2023-10-31T12:35:23;97099.88;;;36.72;22.20
10464;BME280;5279;42.048;24.638;2023-10-31T12:37:51;97098.56;;;36.79;22.16
10464;BME280;5279;42.048;24.638;2023-10-31T12:40:19;97099.59;;;36.09;22.71
10464;BME280;5279;42.048;24.638;2023-10-31T12:42:47;97101.69;;;35.64;23.03
10464;BME280;5279;42.048;24.638;2023-10-31T12:45:17;97094.03;;;35.08;23.69
10464;BME280;5279;42.048;24.638;2023-10-31T12:47:44;97097.50;;;34.55;24.41
10464;BME280;5279;42.048;24.638;2023-10-31T12:50:13;97107.66;;;34.19;24.86
10464;BME280;5279;42.048;24.638;2023-10-31T12:52:47;97094.13;;;33.82;25.35
10464;BME280;5279;42.048;24.638;2023-10-31T12:55:15;97087.66;;;33.45;25.81
10464;BME280;5279;42.048;24.638;2023-10-31T12:57:42;97082.47;;;32.79;26.68
10464;BME280;5279;42.048;24.638;2023-10-31T13:00:10;97080.84;;;32.22;26.98
10464;BME280;5279;42.048;24.638;2023-10-31T13:02:40;97078.06;;;31.80;27.85
10464;BME280;5279;42.048;24.638;2023-10-31T13:05:11;97085.31;;;31.18;28.82